Time;durP1;ratioP1;P1;durP2;ratioP2;P2;SDS_P1;SDS_P2;PMS_P1;PMS_P2;Temp;Humidity;BMP_temperature;BMP_pressure;BME280_temperature;BME280_humidity;BME280_pressure;Samples;Min_cycle;Max_cycle;Signal;HPM_P1;HPM_P2
2022/04/19 16:42:45;;;;;;;10.98;8.33;;;;;;;6.33;57.67;98499.58;2346199;76;22740;-86
2022/04/19 16:45:48;;;;;;;9.30;8.35;;;;;;;6.21;57.79;98513.32;2315804;77;21072;-82
2022/04/19 16:48:49;;;;;;;18.25;12.43;;;;;;;6.17;58.15;98516.41;2316272;77;21001;-82
2022/04/19 16:51:51;;;;;;;19.37;11.38;;;;;;;6.15;58.37;98520.95;2317674;77;20994;-84
2022/04/19 16:54:52;;;;;;;15.30;10.55;;;;;;;6.13;58.56;98516.41;2317032;77;21005;-82
2022/04/19 16:57:52;;;;;;;15.18;9.68;;;;;;;6.12;58.23;98530.34;2316493;77;21561;-86
2022/04/19 17:00:53;;;;;;;14.53;10.78;;;;;;;6.08;58.23;98519.45;2315674;77;20961;-85
2022/04/19 17:03:57;;;;;;;11.43;10.15;;;;;;;6.07;58.36;98523.03;2315446;77;21059;-84
2022/04/19 17:06:58;;;;;;;12.45;10.72;;;;;;;6.04;58.56;98521.23;2315614;77;21005;-85
2022/04/19 17:10:01;;;;;;;15.95;12.10;;;;;;;6.01;58.81;98522.34;2315652;77;20996;-88
2022/04/19 17:13:01;;;;;;;24.00;16.93;;;;;;;5.98;58.67;98522.17;2315499;76;21560;-85
2022/04/19 17:16:02;;;;;;;14.25;11.22;;;;;;;5.91;59.00;98537.23;2315612;77;21031;-85
2022/04/19 17:19:02;;;;;;;13.65;10.70;;;;;;;5.88;58.67;98542.72;2315748;77;20993;-83
2022/04/19 17:22:03;;;;;;;14.07;12.25;;;;;;;5.84;59.11;98539.59;2315686;77;21526;-83
2022/04/19 17:25:05;;;;;;;18.87;14.85;;;;;;;5.80;59.54;98543.96;2315817;77;20980;-84
2022/04/19 17:28:05;;;;;;;24.02;14.07;;;;;;;5.74;59.75;98542.78;2315518;77;21547;-83
2022/04/19 17:31:07;;;;;;;17.65;12.98;;;;;;;5.68;60.14;98543.41;2315674;77;20977;-83
2022/04/19 17:34:08;;;;;;;21.55;15.88;;;;;;;5.60;60.67;98546.77;2315596;77;21001;-82
2022/04/19 17:37:08;;;;;;;25.30;16.35;;;;;;;5.49;60.91;98553.50;2315658;77;20992;-85
2022/04/19 17:40:09;;;;;;;31.42;20.92;;;;;;;5.41;61.12;98552.95;2314531;77;21064;-84
2022/04/19 17:43:10;;;;;;;37.28;25.05;;;;;;;5.33;62.07;98554.19;2302481;77;21532;-84
2022/04/19 17:46:11;;;;;;;36.88;23.90;;;;;;;5.26;61.93;98558.34;2302216;77;20978;-84
2022/04/19 17:49:12;;;;;;;30.92;20.95;;;;;;;5.22;61.91;98557.50;2302372;77;20943;-84
2022/04/19 17:58:52;;;;;;;17.37;12.43;;;;;;;5.06;63.14;98564.65;2301394;77;21560;-85
2022/04/19 18:01:53;;;;;;;17.55;12.90;;;;;;;5.00;63.17;98571.72;2301597;77;21090;-84
2022/04/19 18:04:53;;;;;;;23.60;16.00;;;;;;;4.95;63.41;98570.06;2301487;77;20943;-84
2022/04/19 18:07:54;;;;;;;19.15;12.88;;;;;;;4.89;63.39;98577.94;2301477;77;21022;-85
2022/04/19 18:10:57;;;;;;;15.58;12.93;;;;;;;4.81;63.64;98574.78;2301492;77;20964;-84
2022/04/19 18:13:58;;;;;;;18.30;13.98;;;;;;;4.74;63.93;98576.31;2301413;77;21039;-83
2022/04/19 18:16:58;;;;;;;25.15;18.77;;;;;;;4.67;64.56;98581.77;2301663;77;20978;-84
2022/04/19 18:19:59;;;;;;;70.85;40.25;;;;;;;4.57;65.12;98583.58;2301982;77;20927;-83
2022/04/19 18:26:19;;;;;;;107.17;51.18;;;;;;;4.39;65.88;98586.14;2300273;76;21050;-85
2022/04/19 18:29:19;;;;;;;72.42;41.75;;;;;;;4.28;66.16;98590.19;2318108;76;20978;-83
2022/04/19 18:32:20;;;;;;;73.75;41.08;;;;;;;4.19;66.65;98595.75;2333527;76;20950;-85
2022/04/19 18:35:21;;;;;;;73.72;39.30;;;;;;;4.10;67.29;98595.30;2278160;76;21019;-85
2022/04/19 18:38:22;;;;;;;70.97;40.38;;;;;;;4.00;67.98;98600.98;2274278;76;21045;-85
2022/04/19 18:41:23;;;;;;;80.62;43.52;;;;;;;3.89;68.98;98600.68;2288030;76;20985;-84
2022/04/19 18:44:24;;;;;;;130.72;61.15;;;;;;;3.81;68.84;98608.81;2310162;76;20922;-84
2022/04/19 18:47:26;;;;;;;117.30;58.87;;;;;;;3.71;69.82;98608.34;2333789;76;21038;-85
2022/04/19 18:50:27;;;;;;;148.72;67.67;;;;;;;3.62;69.74;98609.17;2334201;76;21555;-84
2022/04/19 18:53:27;;;;;;;354.98;159.67;;;;;;;3.55;70.16;98615.03;2334455;76;20910;-84
2022/04/19 18:56:28;;;;;;;180.10;85.85;;;;;;;3.50;70.69;98613.35;2333266;76;21024;-84
2022/04/19 18:59:29;;;;;;;100.30;46.42;;;;;;;3.44;71.82;98608.23;2333531;76;21468;-84
2022/04/19 19:02:29;;;;;;;89.62;42.73;;;;;;;3.32;72.03;98601.57;2333690;76;21017;-84
2022/04/19 19:05:30;;;;;;;60.83;31.97;;;;;;;3.31;72.99;98613.70;2334107;76;20973;-85
2022/04/19 19:08:31;;;;;;;48.20;27.37;;;;;;;3.28;73.05;98610.06;2333943;76;21025;-85
2022/04/19 19:11:32;;;;;;;45.92;26.65;;;;;;;3.25;73.35;98616.81;2333945;76;21470;-84
2022/04/19 19:14:33;;;;;;;45.35;27.15;;;;;;;3.21;73.65;98605.11;2334098;76;21018;-88
2022/04/19 19:17:33;;;;;;;32.85;19.95;;;;;;;3.16;74.70;98613.74;2334161;76;21441;-89
2022/04/19 19:20:34;;;;;;;37.65;21.62;;;;;;;3.10;74.00;98621.55;2334091;76;21488;-87
2022/04/19 19:23:35;;;;;;;66.87;38.90;;;;;;;3.03;74.91;98624.84;2334045;76;20970;-88
2022/04/19 19:26:37;;;;;;;327.32;149.10;;;;;;;2.95;76.46;98635.03;2334201;76;21206;-87
2022/04/19 19:29:38;;;;;;;317.95;145.60;;;;;;;2.84;77.59;98622.55;2334171;76;20980;-87
2022/04/19 19:32:40;;;;;;;304.55;134.85;;;;;;;2.78;78.29;98626.14;2334393;76;20922;-88
2022/04/19 19:35:42;;;;;;;238.30;105.45;;;;;;;2.75;78.94;98627.23;2334700;76;20946;-87
2022/04/19 19:38:44;;;;;;;195.10;93.10;;;;;;;2.73;80.08;98620.05;2334268;76;21026;-87
2022/04/19 19:41:46;;;;;;;209.03;93.90;;;;;;;2.76;80.92;98615.93;2338003;76;20986;-86
2022/04/19 19:44:48;;;;;;;212.00;96.95;;;;;;;2.80;82.05;98622.94;2344361;76;21004;-87
2022/04/19 19:47:50;;;;;;;158.57;73.47;;;;;;;2.84;82.36;98623.84;2344214;76;20961;-87
2022/04/19 19:50:52;;;;;;;136.47;64.25;;;;;;;2.87;82.89;98622.76;2344265;76;21109;-88
2022/04/19 19:53:54;;;;;;;163.70;72.97;;;;;;;2.91;83.16;98620.23;2344314;76;21061;-88
2022/04/19 19:56:55;;;;;;;177.75;79.67;;;;;;;2.95;83.59;98625.50;2344150;76;21497;-87
2022/04/19 19:59:57;;;;;;;206.10;95.00;;;;;;;2.98;84.70;98625.22;2344464;76;20981;-87
2022/04/19 20:02:59;;;;;;;155.35;72.20;;;;;;;3.03;84.04;98628.23;2344158;76;21539;-87
2022/04/19 20:06:01;;;;;;;133.70;61.75;;;;;;;3.11;84.75;98627.58;2344338;76;20987;-87
2022/04/19 20:09:02;;;;;;;133.43;62.80;;;;;;;3.18;85.28;98623.47;2344223;76;21034;-87
2022/04/19 20:12:04;;;;;;;165.88;75.32;;;;;;;3.25;84.55;98614.23;2344150;76;21038;-87
2022/04/19 20:15:06;;;;;;;150.78;72.20;;;;;;;3.33;84.34;98614.84;2344307;76;21042;-88
2022/04/19 20:18:08;;;;;;;129.35;61.80;;;;;;;3.38;84.23;98604.88;2344227;76;21088;-88
2022/04/19 20:21:10;;;;;;;88.62;47.25;;;;;;;3.42;85.18;98605.78;2344121;76;21468;-87
2022/04/19 20:24:12;;;;;;;108.67;54.13;;;;;;;3.50;84.11;98610.77;2344113;76;20965;-87
2022/04/19 20:27:14;;;;;;;97.67;48.42;;;;;;;3.54;84.43;98608.23;2344122;76;21112;-88
2022/04/19 20:30:15;;;;;;;107.37;50.75;;;;;;;3.59;83.89;98619.81;2344300;76;20988;-89
2022/04/19 20:33:17;;;;;;;91.60;43.83;;;;;;;3.62;84.39;98621.30;2344229;76;21069;-88
2022/04/19 20:36:19;;;;;;;85.32;42.35;;;;;;;3.67;84.93;98623.83;2344401;76;20981;-88
2022/04/19 20:39:21;;;;;;;60.78;32.15;;;;;;;3.71;84.41;98621.77;2344329;76;21018;-87
2022/04/19 20:42:23;;;;;;;75.97;37.03;;;;;;;3.71;84.08;98620.00;2344209;76;20950;-88
2022/04/19 20:45:24;;;;;;;135.80;61.20;;;;;;;3.66;85.12;98622.68;2344868;76;21029;-88
2022/04/19 20:51:46;;;;;;;151.18;67.55;;;;;;;3.44;85.65;98623.77;2345186;76;20988;-87
2022/04/19 20:54:48;;;;;;;92.50;46.13;;;;;;;3.45;86.01;98615.52;2317369;76;20965;-88
2022/04/19 20:57:50;;;;;;;93.20;46.48;;;;;;;3.40;85.96;98620.64;2344131;76;20992;-89
2022/04/19 21:00:52;;;;;;;72.70;40.43;;;;;;;3.42;85.91;98626.49;2344303;76;21579;-87
2022/04/19 21:03:53;;;;;;;76.12;40.80;;;;;;;3.35;85.40;98624.10;2344287;76;21087;-90
2022/04/19 21:06:55;;;;;;;76.45;38.30;;;;;;;3.35;85.53;98627.98;2344099;76;21285;-89
2022/04/19 21:09:57;;;;;;;191.90;91.75;;;;;;;3.35;85.25;98628.46;2344185;76;21432;-89
2022/04/19 21:12:59;;;;;;;130.75;64.58;;;;;;;3.35;85.25;98621.99;2344120;76;20996;-89
2022/04/19 21:16:00;;;;;;;111.03;56.25;;;;;;;3.36;85.39;98622.33;2344223;76;20995;-88
2022/04/19 21:19:02;;;;;;;135.65;65.22;;;;;;;3.40;85.43;98621.13;2344108;76;20977;-89
2022/04/19 21:22:04;;;;;;;119.90;59.15;;;;;;;3.42;85.50;98623.09;2347377;76;21588;-88
2022/04/19 21:25:06;;;;;;;108.27;54.53;;;;;;;3.42;85.21;98617.91;2344460;76;20988;-87
2022/04/19 21:28:07;;;;;;;103.32;48.83;;;;;;;3.41;84.81;98625.34;2344343;76;20997;-88
2022/04/19 21:31:09;;;;;;;90.97;47.78;;;;;;;3.32;84.58;98622.27;2344581;76;21079;-89
2022/04/19 21:34:11;;;;;;;96.08;48.30;;;;;;;3.29;85.30;98625.11;2348397;75;20973;-89
2022/04/19 21:37:13;;;;;;;90.80;47.48;;;;;;;3.25;85.33;98631.05;2349480;74;20974;-88
2022/04/19 21:40:15;;;;;;;90.45;46.28;;;;;;;3.11;84.54;98634.05;2346708;74;21055;-87
2022/04/19 21:43:16;;;;;;;96.47;48.30;;;;;;;3.06;84.94;98627.15;2342045;76;20950;-87
2022/04/19 21:46:18;;;;;;;93.47;47.45;;;;;;;3.00;85.06;98622.50;2341345;76;21018;-88
2022/04/19 21:49:20;;;;;;;77.72;39.03;;;;;;;3.01;85.40;98630.59;2340846;76;21057;-88
2022/04/19 21:52:21;;;;;;;73.35;34.08;;;;;;;3.03;85.08;98633.89;2340856;76;21043;-88
2022/04/19 21:55:23;;;;;;;67.17;31.87;;;;;;;2.99;84.53;98627.33;2340653;76;20992;-87
2022/04/19 21:58:25;;;;;;;70.52;33.18;;;;;;;2.90;84.31;98626.84;2340876;76;20942;-87
2022/04/19 22:01:26;;;;;;;111.30;45.48;;;;;;;2.86;84.37;98622.42;2341030;76;21016;-87
2022/04/19 22:04:28;;;;;;;136.52;53.98;;;;;;;2.80;84.56;98619.06;2340827;76;21000;-87
2022/04/19 22:07:30;;;;;;;114.32;47.62;;;;;;;2.74;84.38;98610.08;2340991;76;20984;-87
2022/04/19 22:10:31;;;;;;;110.50;45.38;;;;;;;2.75;84.61;98610.42;2340905;76;21011;-87
2022/04/19 22:13:33;;;;;;;106.52;45.25;;;;;;;2.65;84.19;98601.83;2341466;76;20957;-86
2022/04/19 22:16:35;;;;;;;102.02;44.10;;;;;;;2.51;84.92;98607.34;2340857;76;20961;-87
2022/04/19 22:19:37;;;;;;;81.85;38.92;;;;;;;2.51;85.86;98606.05;2341087;76;21032;-87
2022/04/19 22:22:39;;;;;;;88.58;40.10;;;;;;;2.58;86.16;98603.30;2340878;76;20973;-87
2022/04/19 22:25:41;;;;;;;94.65;40.70;;;;;;;2.58;86.21;98604.59;2340887;76;20961;-87
2022/04/19 22:28:44;;;;;;;81.00;37.80;;;;;;;2.56;85.75;98596.97;2340834;76;20981;-88
2022/04/19 22:31:45;;;;;;;77.78;36.00;;;;;;;2.49;85.56;98597.63;2340891;76;21107;-87
2022/04/19 22:34:47;;;;;;;60.50;30.00;;;;;;;2.38;85.89;98592.08;2340827;76;21108;-88
2022/04/19 22:37:49;;;;;;;59.70;28.15;;;;;;;2.29;85.83;98595.45;2341037;76;20973;-88
2022/04/19 22:40:51;;;;;;;81.50;34.48;;;;;;;2.30;86.58;98590.62;2340804;76;21323;-88
2022/04/19 22:43:53;;;;;;;74.95;36.00;;;;;;;2.19;86.22;98595.85;2343658;76;22073;-88
2022/04/19 22:46:55;;;;;;;73.20;34.88;;;;;;;2.02;86.58;98602.45;2344403;76;20957;-88
2022/04/19 22:49:56;;;;;;;63.33;29.98;;;;;;;2.10;87.95;98606.95;2344280;76;20957;-87
2022/04/19 22:52:58;;;;;;;67.90;30.05;;;;;;;2.15;87.67;98611.28;2344233;76;20953;-87
2022/04/19 22:56:00;;;;;;;64.47;32.53;;;;;;;2.04;87.08;98617.34;2344225;76;21080;-87
2022/04/19 22:59:02;;;;;;;68.92;31.50;;;;;;;1.95;88.22;98615.05;2344375;76;21040;-87
2022/04/19 23:02:03;;;;;;;67.37;32.45;;;;;;;1.98;88.39;98603.64;2344244;76;21061;-88
2022/04/19 23:05:05;;;;;;;68.10;31.25;;;;;;;1.94;89.26;98603.56;2344236;76;21072;-87
2022/04/19 23:08:07;;;;;;;58.63;28.05;;;;;;;1.98;89.26;98594.60;2344175;76;21079;-88
2022/04/19 23:11:09;;;;;;;58.70;28.98;;;;;;;2.03;89.55;98589.07;2344177;76;20944;-88
2022/04/19 23:14:10;;;;;;;59.40;26.20;;;;;;;2.07;89.66;98593.02;2344193;76;21041;-88
2022/04/19 23:17:12;;;;;;;63.00;26.95;;;;;;;2.07;89.71;98590.44;2344086;76;20996;-88
2022/04/19 23:20:14;;;;;;;53.28;24.75;;;;;;;1.98;90.00;98585.09;2343737;76;20988;-88
2022/04/19 23:23:16;;;;;;;60.50;26.60;;;;;;;1.93;90.64;98577.41;2344224;76;21021;-88
2022/04/19 23:29:38;;;;;;;67.35;29.23;;;;;;;2.01;91.39;98574.97;2344207;76;21100;-89
2022/04/19 23:32:39;;;;;;;72.78;30.70;;;;;;;2.03;91.02;98580.03;2344274;76;21073;-88
2022/04/19 23:35:41;;;;;;;60.88;29.10;;;;;;;1.97;91.51;98578.30;2344234;76;20997;-89
2022/04/19 23:38:43;;;;;;;51.58;25.75;;;;;;;1.98;92.21;98578.63;2344306;76;21040;-89
2022/04/19 23:41:45;;;;;;;53.30;26.15;;;;;;;1.96;91.95;98574.55;2344287;76;20973;-89
2022/04/19 23:44:46;;;;;;;55.35;27.70;;;;;;;1.96;92.25;98568.09;2344727;76;21026;-88
2022/04/19 23:47:48;;;;;;;45.52;23.87;;;;;;;1.98;92.16;98561.03;2346844;76;20961;-88
2022/04/19 23:50:50;;;;;;;46.33;24.32;;;;;;;1.93;92.37;98562.72;2345605;76;21048;-89
2022/04/19 23:53:52;;;;;;;43.05;23.10;;;;;;;1.94;92.47;98552.73;2344445;76;20996;-88
2022/04/19 23:56:54;;;;;;;36.23;21.65;;;;;;;1.91;92.19;98552.97;2344186;76;21048;-89
2022/04/19 23:59:56;;;;;;;42.90;22.87;;;;;;;1.89;92.65;98557.45;2344048;76;21029;-89
